createdAt,value
2018-10-16T00:00:52.539Z,92.54
2018-10-16T00:03:22.304Z,92.56
2018-10-16T00:05:52.110Z,92.14
2018-10-16T00:08:21.778Z,92.06
2018-10-16T00:10:51.369Z,92.69
2018-10-16T00:13:22.487Z,92.36
2018-10-16T00:15:51.937Z,92.43
2018-10-16T00:18:21.428Z,92.31
2018-10-16T00:20:50.964Z,92.28
2018-10-16T00:23:20.496Z,91.69
2018-10-16T00:25:49.898Z,92.44
2018-10-16T00:28:19.269Z,92.43
2018-10-16T00:30:48.654Z,92.88
2018-10-16T00:33:17.976Z,92.87
2018-10-16T00:35:47.533Z,92.92
2018-10-16T00:38:16.855Z,93.17
2018-10-16T00:40:46.289Z,92.21
2018-10-16T00:43:15.690Z,91.87
2018-10-16T00:45:45.124Z,92.14
2018-10-16T00:48:14.393Z,92.37
2018-10-16T00:50:43.970Z,92.19
2018-10-16T00:53:13.234Z,92.51
2018-10-16T00:55:42.867Z,92.48
2018-10-16T00:58:12.322Z,91.55
2018-10-16T01:00:41.731Z,92.39
2018-10-16T01:03:11.179Z,92.50
2018-10-16T01:05:40.562Z,93.14
2018-10-16T01:08:10.167Z,93.84
2018-10-16T01:10:39.517Z,92.65
2018-10-16T01:13:08.846Z,92.75
2018-10-16T01:15:38.213Z,93.25
2018-10-16T01:18:07.500Z,93.74
2018-10-16T01:20:36.851Z,93.28
2018-10-16T01:23:06.216Z,93.08
2018-10-16T01:25:35.628Z,93.34
2018-10-16T01:28:05.095Z,94.38
2018-10-16T01:30:34.474Z,94.69
2018-10-16T01:33:03.794Z,94.67
2018-10-16T01:35:33.330Z,95.13
2018-10-16T01:38:02.803Z,95.41
2018-10-16T01:40:32.114Z,96.02
2018-10-16T01:43:01.441Z,96.01
2018-10-16T01:45:30.748Z,95.87
2018-10-16T01:48:00.149Z,96.29
2018-10-16T01:50:29.510Z,95.31
2018-10-16T01:52:58.844Z,95.32
2018-10-16T01:55:28.198Z,95.02
2018-10-16T01:57:57.753Z,94.88
2018-10-16T02:00:27.111Z,95.12
2018-10-16T02:02:56.504Z,94.37
2018-10-16T02:05:25.981Z,94.73
2018-10-16T02:07:55.483Z,95.07
2018-10-16T02:10:24.933Z,95.99
2018-10-16T02:12:54.595Z,94.69
2018-10-16T02:15:25.492Z,94.92
2018-10-16T02:17:54.949Z,95.03
2018-10-16T02:20:24.766Z,95.24
2018-10-16T02:22:54.286Z,96.27
2018-10-16T02:25:25.232Z,97.35
2018-10-16T02:27:54.810Z,95.99
2018-10-16T02:30:24.399Z,96.10
2018-10-16T02:32:54.038Z,96.38
2018-10-16T02:35:23.726Z,96.07
2018-10-16T02:37:53.546Z,95.81
2018-10-16T02:40:23.131Z,95.89
2018-10-16T02:42:52.780Z,96.48
2018-10-16T02:45:22.904Z,95.74
2018-10-16T02:47:52.616Z,96.03
2018-10-16T02:50:22.142Z,96.82
2018-10-16T02:52:51.655Z,96.33
2018-10-16T02:55:21.216Z,96.41
2018-10-16T02:57:55.783Z,96.42
2018-10-16T03:00:25.563Z,96.90
2018-10-16T03:02:55.374Z,96.94
2018-10-16T03:05:24.885Z,97.54
2018-10-16T03:07:54.786Z,97.57
2018-10-16T03:10:24.402Z,97.58
2018-10-16T03:12:53.977Z,97.37
2018-10-16T03:15:23.442Z,96.48
2018-10-16T03:17:53.136Z,96.80
2018-10-16T03:20:22.658Z,96.48
2018-10-16T03:22:52.193Z,96.42
2018-10-16T03:25:21.864Z,96.23
2018-10-16T03:27:51.550Z,97.75
2018-10-16T03:30:21.229Z,98.23
2018-10-16T03:32:50.610Z,98.11
2018-10-16T03:35:20.080Z,98.39
2018-10-16T03:37:49.530Z,98.68
2018-10-16T03:40:18.899Z,99.31
2018-10-16T03:42:48.276Z,99.96
2018-10-16T03:45:17.645Z,99.71
2018-10-16T03:47:47.129Z,99.46
2018-10-16T03:50:16.566Z,100.00
2018-10-16T03:52:45.903Z,99.00
2018-10-16T03:55:15.221Z,99.37
2018-10-16T03:57:44.606Z,99.50
2018-10-16T04:00:14.003Z,99.84
2018-10-16T04:02:43.368Z,99.26
2018-10-16T04:05:12.781Z,99.00
2018-10-16T04:07:42.308Z,97.76
2018-10-16T04:10:11.595Z,97.38
2018-10-16T04:12:40.884Z,97.65
2018-10-16T04:15:11.116Z,97.57
2018-10-16T04:17:41.245Z,97.32
2018-10-16T04:20:10.637Z,98.02
2018-10-16T04:22:40.020Z,97.94
2018-10-16T04:25:09.708Z,98.10
2018-10-16T04:27:38.995Z,98.22
2018-10-16T04:30:08.659Z,98.96
2018-10-16T04:32:38.036Z,98.93
2018-10-16T04:35:15.218Z,98.49
2018-10-16T04:37:45.541Z,99.07
2018-10-16T04:40:15.030Z,98.87
2018-10-16T04:42:44.522Z,99.89
2018-10-16T04:45:13.993Z,100.00
2018-10-16T04:47:43.455Z,100.00
2018-10-16T04:50:12.962Z,100.00
2018-10-16T04:52:42.404Z,100.00
2018-10-16T04:55:11.885Z,99.42
2018-10-16T04:57:41.188Z,99.41
2018-10-16T05:00:10.805Z,99.53
2018-10-16T05:02:41.374Z,100.00
2018-10-16T05:05:22.680Z,100.00
2018-10-16T05:07:52.971Z,100.00
2018-10-16T05:10:22.818Z,100.00
2018-10-16T05:12:52.443Z,100.00
2018-10-16T05:15:27.642Z,100.00
2018-10-16T05:17:57.460Z,100.00
2018-10-16T05:20:27.046Z,100.00
2018-10-16T05:22:57.502Z,100.00
2018-10-16T05:25:28.232Z,100.00
2018-10-16T05:27:58.099Z,100.00
2018-10-16T05:30:27.730Z,100.00
2018-10-16T05:32:57.145Z,100.00
2018-10-16T05:35:26.641Z,100.00
2018-10-16T05:37:56.071Z,100.00
2018-10-16T05:40:25.521Z,100.00
2018-10-16T05:42:55.184Z,100.00
2018-10-16T05:45:25.990Z,100.00
2018-10-16T05:47:55.654Z,100.00
2018-10-16T05:50:25.211Z,100.00
2018-10-16T05:52:54.706Z,100.00
2018-10-16T05:55:24.161Z,100.00
2018-10-16T05:57:54.056Z,100.00
2018-10-16T06:00:39.677Z,100.00
2018-10-16T06:03:09.090Z,100.00
2018-10-16T06:05:38.959Z,100.00
2018-10-16T06:08:08.592Z,100.00
2018-10-16T06:10:38.205Z,100.00
2018-10-16T06:13:07.579Z,100.00
2018-10-16T06:15:36.883Z,100.00
2018-10-16T06:18:06.398Z,100.00
2018-10-16T06:20:35.714Z,100.00
2018-10-16T06:23:05.112Z,100.00
2018-10-16T06:25:34.396Z,100.00
2018-10-16T06:28:22.574Z,96.44
2018-10-16T06:30:52.003Z,97.88
2018-10-16T06:33:23.189Z,98.57
2018-10-16T06:35:52.635Z,98.18
2018-10-16T06:38:22.220Z,97.50
2018-10-16T06:40:53.239Z,96.75
2018-10-16T06:43:22.723Z,96.75
2018-10-16T06:45:52.544Z,96.92
2018-10-16T06:48:23.757Z,96.99
2018-10-16T06:50:53.072Z,96.00
2018-10-16T06:53:22.779Z,94.68
2018-10-16T06:55:52.323Z,93.85
2018-10-16T06:58:22.220Z,93.50
2018-10-16T07:00:52.796Z,92.86
2018-10-16T07:03:22.595Z,92.33
2018-10-16T07:05:52.075Z,90.89
2018-10-16T07:08:21.625Z,90.11
2018-10-16T07:10:51.077Z,89.15
2018-10-16T07:13:20.579Z,88.11
2018-10-16T07:15:50.057Z,87.98
2018-10-16T07:18:19.733Z,87.21
2018-10-16T07:20:49.313Z,86.79
2018-10-16T07:23:18.812Z,86.34
2018-10-16T07:25:48.158Z,85.30
2018-10-16T07:28:17.533Z,85.59
2018-10-16T07:30:55.605Z,85.07
2018-10-16T07:33:26.393Z,84.45
2018-10-16T07:35:56.572Z,84.16
2018-10-16T07:38:26.055Z,83.78
2018-10-16T07:40:55.483Z,83.45
2018-10-16T07:43:25.094Z,82.39
2018-10-16T07:45:54.607Z,81.24
2018-10-16T07:48:24.572Z,80.46
2018-10-16T07:50:56.137Z,79.48
2018-10-16T07:53:25.647Z,79.25
2018-10-16T07:55:55.269Z,79.02
2018-10-16T07:58:24.793Z,78.33
2018-10-16T08:00:58.715Z,77.34
2018-10-16T08:03:28.227Z,76.49
2018-10-16T08:05:57.749Z,76.24
2018-10-16T08:08:30.819Z,75.81
2018-10-16T08:11:00.222Z,75.90
2018-10-16T08:13:30.883Z,75.41
2018-10-16T08:16:00.231Z,74.15
2018-10-16T08:18:29.595Z,74.34
2018-10-16T08:20:58.887Z,73.84
2018-10-16T08:23:28.607Z,73.47
2018-10-16T08:25:57.943Z,73.14
2018-10-16T08:28:28.579Z,74.40
2018-10-16T08:30:57.980Z,73.61
2018-10-16T08:33:28.032Z,72.84
2018-10-16T08:35:59.307Z,72.88
2018-10-16T08:39:40.089Z,72.43
2018-10-16T08:42:32.223Z,70.18
2018-10-16T08:45:20.882Z,69.40
2018-10-16T08:48:07.198Z,68.68
2018-10-16T08:50:53.772Z,67.68
2018-10-16T08:53:25.158Z,67.07
2018-10-16T08:55:55.317Z,66.97
2018-10-16T08:58:24.745Z,67.29
2018-10-16T09:00:54.251Z,65.33
2018-10-16T09:03:24.851Z,64.38
2018-10-16T09:05:57.840Z,63.97
2018-10-16T09:08:27.184Z,64.14
2018-10-16T09:10:57.502Z,63.48
2018-10-16T09:13:26.884Z,63.54
2018-10-16T09:15:56.295Z,62.51
2018-10-16T09:18:25.971Z,62.54
2018-10-16T09:20:55.821Z,61.72
2018-10-16T09:23:25.230Z,60.66
2018-10-16T09:25:54.803Z,60.89
2018-10-16T09:28:24.275Z,59.78
2018-10-16T09:30:53.849Z,60.22
2018-10-16T09:33:23.291Z,59.42
2018-10-16T09:35:52.806Z,58.89
2018-10-16T09:38:22.277Z,58.57
2018-10-16T09:40:51.751Z,58.01
2018-10-16T09:43:21.746Z,57.68
2018-10-16T09:45:53.342Z,57.08
2018-10-16T09:48:22.822Z,56.98
2018-10-16T09:50:54.548Z,56.59
2018-10-16T09:53:26.215Z,56.12
2018-10-16T09:55:55.655Z,56.12
2018-10-16T09:58:25.339Z,55.91
2018-10-16T10:01:00.100Z,54.71
2018-10-16T10:03:29.365Z,54.37
2018-10-16T10:05:58.700Z,54.60
2018-10-16T10:08:28.092Z,53.87
2018-10-16T10:10:57.535Z,53.95
2018-10-16T10:13:27.013Z,54.10
2018-10-16T10:15:56.489Z,53.31
2018-10-16T10:18:27.548Z,51.80
2018-10-16T10:20:57.422Z,52.39
2018-10-16T10:23:27.082Z,51.75
2018-10-16T10:25:56.494Z,52.08
2018-10-16T10:28:27.786Z,51.80
2018-10-16T10:30:57.344Z,50.58
2018-10-16T10:33:26.690Z,48.24
2018-10-16T10:35:56.174Z,49.29
2018-10-16T10:38:25.662Z,48.94
2018-10-16T10:40:55.045Z,48.58
2018-10-16T10:43:24.603Z,48.32
2018-10-16T10:45:54.221Z,48.23
2018-10-16T10:48:23.892Z,47.63
2018-10-16T10:50:53.650Z,47.11
2018-10-16T10:53:23.059Z,46.30
2018-10-16T10:55:52.563Z,45.42
2018-10-16T10:58:22.016Z,44.91
2018-10-16T11:00:51.521Z,45.18
2018-10-16T11:03:21.080Z,45.84
2018-10-16T11:05:50.328Z,45.33
2018-10-16T11:08:19.660Z,44.30
2018-10-16T11:10:49.024Z,43.57
2018-10-16T11:13:18.382Z,43.90
2018-10-16T11:15:47.735Z,43.67
2018-10-16T11:18:16.991Z,43.52
2018-10-16T11:20:46.356Z,43.42
2018-10-16T11:23:17.358Z,42.56
2018-10-16T11:25:46.687Z,42.50
2018-10-16T11:28:15.990Z,42.09
2018-10-16T11:30:46.220Z,42.36
2018-10-16T11:33:15.701Z,42.13
2018-10-16T11:35:45.123Z,42.65
2018-10-16T11:38:14.526Z,41.78
2018-10-16T11:40:44.488Z,42.42
2018-10-16T11:43:13.889Z,41.55
2018-10-16T11:45:43.698Z,41.57
2018-10-16T11:48:13.147Z,40.68
2018-10-16T11:50:44.251Z,40.78
2018-10-16T11:53:14.060Z,40.73
2018-10-16T11:55:43.394Z,39.87
2018-10-16T11:58:13.798Z,39.71
2018-10-16T12:00:43.130Z,39.87
2018-10-16T12:03:13.394Z,40.14
2018-10-16T12:05:42.806Z,39.94
2018-10-16T12:08:14.202Z,40.22
2018-10-16T12:10:43.651Z,40.83
2018-10-16T12:13:13.237Z,40.09
2018-10-16T12:15:43.215Z,40.23
2018-10-16T12:18:17.918Z,40.23
2018-10-16T12:20:54.620Z,38.93
2018-10-16T12:23:24.097Z,38.94
2018-10-16T12:25:53.687Z,38.86
2018-10-16T12:28:23.400Z,39.24
2018-10-16T12:30:52.893Z,38.77
2018-10-16T12:33:22.438Z,38.79
2018-10-16T12:35:51.947Z,38.48
2018-10-16T12:38:21.551Z,38.53
2018-10-16T12:40:51.460Z,38.28
2018-10-16T12:43:20.956Z,38.16
2018-10-16T12:45:50.609Z,37.31
2018-10-16T12:48:20.070Z,38.04
2018-10-16T12:50:53.774Z,38.79
2018-10-16T12:53:23.384Z,38.20
2018-10-16T12:55:57.471Z,39.18
2018-10-16T12:58:26.888Z,39.06
2018-10-16T13:00:56.391Z,38.90
2018-10-16T13:03:26.015Z,39.82
2018-10-16T13:05:55.618Z,39.83
2018-10-16T13:08:25.288Z,39.95
2018-10-16T13:10:55.056Z,39.39
2018-10-16T13:13:24.577Z,39.46
2018-10-16T13:15:54.237Z,37.80
2018-10-16T13:18:26.460Z,37.33
2018-10-16T13:20:56.086Z,37.75
2018-10-16T13:23:25.671Z,38.64
2018-10-16T13:25:55.386Z,38.90
2018-10-16T13:28:24.973Z,38.04
2018-10-16T13:30:54.698Z,38.62
2018-10-16T13:33:24.209Z,38.05
2018-10-16T13:35:55.305Z,38.88
2018-10-16T13:38:25.504Z,38.95
2018-10-16T13:40:55.291Z,38.70
2018-10-16T13:43:26.479Z,38.46
2018-10-16T13:45:56.149Z,38.71
2018-10-16T13:48:25.593Z,37.79
2018-10-16T13:50:55.415Z,37.73
2018-10-16T13:53:24.916Z,38.06
2018-10-16T13:55:54.370Z,38.31
2018-10-16T13:58:23.987Z,38.54
2018-10-16T14:00:53.618Z,38.63
2018-10-16T14:03:24.177Z,37.63
2018-10-16T14:05:53.812Z,37.74
2018-10-16T14:08:23.510Z,37.48
2018-10-16T14:10:54.099Z,37.66
2018-10-16T14:13:23.600Z,37.57
2018-10-16T14:15:53.121Z,37.83
2018-10-16T14:18:22.587Z,37.68
2018-10-16T14:20:52.159Z,37.56
2018-10-16T14:23:22.078Z,37.02
2018-10-16T14:25:51.594Z,37.64
2018-10-16T14:28:21.078Z,38.24
2018-10-16T14:30:50.542Z,38.41
2018-10-16T14:33:20.193Z,38.87
2018-10-16T14:35:49.520Z,38.93
2018-10-16T14:38:21.038Z,39.08
2018-10-16T14:40:50.452Z,38.97
2018-10-16T14:43:20.975Z,38.82
2018-10-16T14:45:50.518Z,39.09
2018-10-16T14:48:19.897Z,39.11
2018-10-16T14:50:49.245Z,39.37
2018-10-16T14:53:18.622Z,39.28
2018-10-16T14:55:47.950Z,39.31
2018-10-16T14:58:17.265Z,39.30
2018-10-16T15:00:46.675Z,39.53
2018-10-16T15:03:16.171Z,39.44
2018-10-16T15:05:45.537Z,39.89
2018-10-16T15:08:14.995Z,39.59
2018-10-16T15:10:44.227Z,39.96
2018-10-16T15:13:13.621Z,40.32
2018-10-16T15:15:43.218Z,40.33
2018-10-16T15:18:12.636Z,40.33
2018-10-16T15:20:42.131Z,40.85
2018-10-16T15:23:14.449Z,40.93
2018-10-16T15:25:43.804Z,40.47
2018-10-16T15:28:14.260Z,40.70
2018-10-16T15:30:43.646Z,41.30
2018-10-16T15:33:13.448Z,41.50
2018-10-16T15:38:19.091Z,41.84
2018-10-16T15:40:49.535Z,42.16
2018-10-16T15:43:18.853Z,42.47
2018-10-16T15:45:50.449Z,42.35
2018-10-16T15:48:21.574Z,42.58
2018-10-16T15:50:50.977Z,43.30
2018-10-16T15:53:22.037Z,43.83
2018-10-16T15:55:53.474Z,43.92
2018-10-16T15:58:22.854Z,44.15
2018-10-16T16:00:52.365Z,45.03
2018-10-16T16:03:21.928Z,45.77
2018-10-16T16:05:51.569Z,46.47
2018-10-16T16:08:21.113Z,47.36
2018-10-16T16:10:51.607Z,47.60
2018-10-16T16:13:23.076Z,48.64
2018-10-16T16:15:52.575Z,49.71
2018-10-16T16:18:22.067Z,50.53
2018-10-16T16:20:51.445Z,50.90
2018-10-16T16:23:22.526Z,51.58
2018-10-16T16:25:52.093Z,52.49
2018-10-16T16:28:21.511Z,52.88
2018-10-16T16:30:50.900Z,53.63
2018-10-16T16:33:21.412Z,54.43
2018-10-16T16:35:50.849Z,55.36
2018-10-16T16:38:20.198Z,56.59
2018-10-16T16:40:49.499Z,56.51
2018-10-16T16:43:18.795Z,57.21
2018-10-16T16:45:48.134Z,57.42
2018-10-16T16:48:17.512Z,58.44
2018-10-16T16:50:47.131Z,58.67
2018-10-16T16:53:16.466Z,58.84
2018-10-16T16:55:45.810Z,59.15
2018-10-16T16:58:15.193Z,60.02
2018-10-16T17:00:44.594Z,60.73
2018-10-16T17:03:13.945Z,60.88
2018-10-16T17:05:43.285Z,60.77
2018-10-16T17:08:12.706Z,61.31
2018-10-16T17:10:42.661Z,61.56
2018-10-16T17:13:11.992Z,61.96
2018-10-16T17:15:41.318Z,62.24
2018-10-16T17:18:11.131Z,62.55
2018-10-16T17:20:40.555Z,62.52
2018-10-16T17:23:09.857Z,62.97
2018-10-16T17:25:39.513Z,63.35
2018-10-16T17:28:08.654Z,63.36
2018-10-16T17:30:37.954Z,63.51
2018-10-16T17:33:07.393Z,64.42
2018-10-16T17:35:36.730Z,65.27
2018-10-16T17:38:06.139Z,65.55
2018-10-16T17:40:35.620Z,66.10
2018-10-16T17:43:05.109Z,66.15
2018-10-16T17:45:34.582Z,66.66
2018-10-16T17:48:03.981Z,66.86
2018-10-16T17:50:33.280Z,67.90
2018-10-16T17:53:02.622Z,68.02
2018-10-16T17:55:32.600Z,68.31
2018-10-16T17:58:01.970Z,68.92
2018-10-16T18:00:31.291Z,68.98
2018-10-16T18:03:00.841Z,69.11
2018-10-16T18:05:30.059Z,69.71
2018-10-16T18:07:59.348Z,69.29
2018-10-16T18:10:28.757Z,69.68
2018-10-16T18:12:58.104Z,70.52
2018-10-16T18:15:28.414Z,70.79
2018-10-16T18:17:57.793Z,70.97
2018-10-16T18:20:27.164Z,71.26
2018-10-16T18:22:56.482Z,71.49
2018-10-16T18:25:25.862Z,71.53
2018-10-16T18:27:55.256Z,72.04
2018-10-16T18:30:24.706Z,71.93
2018-10-16T18:32:54.094Z,72.28
2018-10-16T18:35:25.437Z,72.60
2018-10-16T18:37:54.777Z,73.04
2018-10-16T18:40:24.201Z,73.69
2018-10-16T18:42:53.546Z,73.97
2018-10-16T18:45:23.059Z,74.05
2018-10-16T18:47:52.950Z,74.60
2018-10-16T18:50:22.386Z,74.63
2018-10-16T18:52:51.827Z,74.78
2018-10-16T18:55:21.337Z,74.79
2018-10-16T18:57:52.888Z,75.24
2018-10-16T19:00:22.517Z,75.58
2018-10-16T19:02:52.018Z,76.05
2018-10-16T19:05:21.536Z,75.67
2018-10-16T19:07:52.933Z,76.30
2018-10-16T19:10:22.332Z,76.86
2018-10-16T19:12:51.822Z,76.93
2018-10-16T19:15:26.412Z,77.89
2018-10-16T19:17:56.316Z,77.54
2018-10-16T19:20:25.689Z,77.66
2018-10-16T19:22:59.542Z,77.61
2018-10-16T19:25:29.260Z,77.55
2018-10-16T19:27:58.647Z,77.12
2018-10-16T19:30:28.131Z,76.75
2018-10-16T19:32:59.011Z,76.62
2018-10-16T19:35:30.934Z,76.73
2018-10-16T19:38:00.359Z,76.75
2018-10-16T19:40:29.682Z,77.61
2018-10-16T19:42:59.142Z,77.86
2018-10-16T19:45:28.620Z,77.50
2018-10-16T19:47:58.199Z,78.38
2018-10-16T19:50:28.781Z,78.67
2018-10-16T19:52:58.800Z,78.78
2018-10-16T19:55:28.082Z,78.78
2018-10-16T19:58:02.440Z,78.92
2018-10-16T20:00:31.584Z,79.27
2018-10-16T20:03:00.983Z,79.13
2018-10-16T20:05:30.331Z,79.80
2018-10-16T20:07:59.735Z,79.80
2018-10-16T20:10:29.162Z,80.03
2018-10-16T20:12:58.755Z,80.19
2018-10-16T20:15:28.192Z,80.31
2018-10-16T20:17:57.550Z,80.56
2018-10-16T20:20:27.115Z,80.54
2018-10-16T20:22:56.823Z,81.26
2018-10-16T20:25:26.250Z,81.17
2018-10-16T20:27:56.112Z,81.99
2018-10-16T20:30:25.700Z,81.84
2018-10-16T20:32:55.309Z,81.96
2018-10-16T20:35:24.782Z,82.82
2018-10-16T20:37:54.108Z,82.76
2018-10-16T20:40:23.619Z,83.06
2018-10-16T20:42:53.227Z,83.61
2018-10-16T20:48:46.606Z,83.46
2018-10-16T20:51:15.899Z,83.76
2018-10-16T20:53:45.231Z,83.71
2018-10-16T20:56:14.594Z,83.96
2018-10-16T20:58:44.023Z,83.46
2018-10-16T21:01:14.650Z,83.02
2018-10-16T21:03:44.179Z,83.92
2018-10-16T21:06:13.808Z,83.85
2018-10-16T21:08:43.617Z,83.95
2018-10-16T21:11:13.090Z,84.13
2018-10-16T21:13:42.901Z,84.57
2018-10-16T21:16:13.663Z,84.66
2018-10-16T21:18:43.946Z,85.36
2018-10-16T21:21:13.725Z,85.60
2018-10-16T21:23:43.770Z,86.00
2018-10-16T21:26:15.663Z,86.27
2018-10-16T21:28:45.241Z,86.50
2018-10-16T21:31:14.738Z,86.52
2018-10-16T21:33:44.291Z,86.20
2018-10-16T21:36:13.970Z,86.65
2018-10-16T21:38:43.463Z,86.61
2018-10-16T21:41:15.525Z,86.97
2018-10-16T21:43:44.966Z,86.55
2018-10-16T21:46:14.242Z,86.49
2018-10-16T21:48:43.832Z,87.09
2018-10-16T21:51:13.379Z,87.85
2018-10-16T21:53:42.922Z,87.94
2018-10-16T21:56:12.525Z,88.30
2018-10-16T21:58:42.049Z,88.28
2018-10-16T22:01:12.522Z,88.54
2018-10-16T22:03:42.059Z,88.37
2018-10-16T22:06:11.487Z,88.48
2018-10-16T22:08:40.911Z,88.96
2018-10-16T22:11:10.345Z,88.46
2018-10-16T22:13:39.605Z,88.61
2018-10-16T22:16:08.927Z,89.33
2018-10-16T22:18:38.293Z,89.74
2018-10-16T22:21:07.578Z,89.52
2018-10-16T22:23:36.833Z,89.98
2018-10-16T22:26:06.343Z,90.68
2018-10-16T22:28:35.606Z,91.05
2018-10-16T22:31:05.022Z,90.83
2018-10-16T22:33:33.977Z,90.72
2018-10-16T22:36:03.233Z,91.16
2018-10-16T22:38:32.618Z,89.92
2018-10-16T22:41:01.973Z,89.01
2018-10-16T22:43:31.247Z,89.34
2018-10-16T22:46:00.526Z,89.43
2018-10-16T22:48:29.850Z,89.35
2018-10-16T22:50:59.141Z,89.00
2018-10-16T22:53:28.401Z,88.50
2018-10-16T22:55:57.694Z,88.84
2018-10-16T22:58:27.057Z,89.48
2018-10-16T23:00:56.456Z,89.46
2018-10-16T23:03:25.829Z,88.66
2018-10-16T23:05:55.208Z,89.18
2018-10-16T23:08:24.639Z,88.75
2018-10-16T23:10:54.109Z,89.50
2018-10-16T23:13:23.618Z,89.83
2018-10-16T23:15:53.067Z,90.10
2018-10-16T23:18:22.813Z,90.29
2018-10-16T23:20:52.580Z,90.10
2018-10-16T23:23:22.128Z,89.38
2018-10-16T23:25:51.697Z,89.62
2018-10-16T23:28:21.132Z,89.05
2018-10-16T23:30:50.769Z,88.99
2018-10-16T23:33:20.156Z,88.86
2018-10-16T23:35:49.577Z,88.51
2018-10-16T23:38:18.880Z,88.93
2018-10-16T23:40:48.149Z,88.46
2018-10-16T23:43:17.779Z,88.37
2018-10-16T23:45:47.036Z,88.48
2018-10-16T23:48:16.361Z,88.55
2018-10-16T23:50:45.649Z,88.28
2018-10-16T23:53:15.034Z,88.00
2018-10-16T23:55:44.223Z,87.87
2018-10-16T23:58:13.490Z,87.69
